Time;durP1;ratioP1;P1;durP2;ratioP2;P2;SDS_P1;SDS_P2;PMS_P1;PMS_P2;Temp;Humidity;BMP_temperature;BMP_pressure;BME280_temperature;BME280_humidity;BME280_pressure;Samples;Min_cycle;Max_cycle;Signal;HPM_P1;HPM_P2
2022/05/19 00:01:04;;;;;;;;;;;;;;;23.33;58.19;99486.13;2077433;28;19936;-46
2022/05/19 00:02:07;;;;;;;;;;;;;;;23.33;57.92;99483.41;2077632;28;19929;-49
2022/05/19 00:03:08;;;;;;;;;;;;;;;23.34;57.82;99481.53;2077136;28;19929;-50
2022/05/19 00:04:09;;;;;;;;;;;;;;;23.33;57.85;99483.41;2077138;28;20718;-52
2022/05/19 00:05:10;;;;;;;;;;;;;;;23.31;57.86;99482.78;2077138;28;19948;-48
2022/05/19 00:06:12;;;;;;;;;;;;;;;23.32;57.83;99480.94;2076053;28;20987;-47
2022/05/19 00:07:13;;;;;;;;;;;;;;;23.32;57.92;99484.47;2077638;28;19929;-48
2022/05/19 00:08:15;;;;;;;;;;;;;;;23.31;58.05;99485.50;2077408;28;19936;-48
2022/05/19 00:09:17;;;;;;;;;;;;;;;23.32;58.00;99484.47;2076869;28;20605;-52
2022/05/19 00:10:17;;;;;;;;;;;;;;;23.32;58.12;99491.78;2077983;28;19973;-48
2022/05/19 00:11:20;;;;;;;;;;;;;;;23.31;58.16;99482.78;2076952;28;19940;-51
2022/05/19 00:12:23;;;;;;;;;;;;;;;23.32;57.98;99491.78;2077708;28;20311;-50
2022/05/19 00:13:26;;;;;;;;;;;;;;;23.31;57.83;99485.50;2077352;28;20032;-52
2022/05/19 00:14:27;;;;;;;;;;;;;;;23.32;58.04;99487.19;2078279;28;19956;-48
2022/05/19 00:15:28;;;;;;;;;;;;;;;23.32;57.97;99487.19;2077726;28;19925;-53
2022/05/19 00:16:29;;;;;;;;;;;;;;;23.32;57.93;99487.19;2076430;28;19932;-49
2022/05/19 00:17:30;;;;;;;;;;;;;;;23.32;58.06;99481.78;2076160;28;19932;-50
2022/05/19 00:18:31;;;;;;;;;;;;;;;23.32;57.68;99491.78;2077404;28;19925;-49
2022/05/19 00:19:33;;;;;;;;;;;;;;;23.33;57.95;99493.44;2077412;28;20382;-49
2022/05/19 00:20:33;;;;;;;;;;;;;;;23.34;57.80;99489.66;2077668;28;19929;-47
2022/05/19 00:21:35;;;;;;;;;;;;;;;23.34;57.84;99495.91;2076093;28;19931;-51
2022/05/19 00:22:36;;;;;;;;;;;;;;;23.34;57.83;99492.38;2077821;28;20388;-50
2022/05/19 00:23:37;;;;;;;;;;;;;;;23.31;58.11;99496.34;2078021;28;19929;-46
2022/05/19 00:24:39;;;;;;;;;;;;;;;23.32;57.88;99489.06;2077614;28;19925;-48
2022/05/19 00:25:40;;;;;;;;;;;;;;;23.32;57.85;99497.19;2075597;28;19933;-49
2022/05/19 00:26:41;;;;;;;;;;;;;;;23.31;57.79;99490.91;2077589;28;19925;-48
2022/05/19 00:27:43;;;;;;;;;;;;;;;23.30;58.11;99491.16;2076433;28;20798;-48
2022/05/19 00:28:45;;;;;;;;;;;;;;;23.30;58.01;99494.69;2077136;28;19933;-50
2022/05/19 00:29:45;;;;;;;;;;;;;;;23.31;58.08;99500.91;2078112;28;19972;-50
2022/05/19 00:30:47;;;;;;;;;;;;;;;23.30;57.82;99497.38;2077912;28;19929;-50
2022/05/19 00:31:47;;;;;;;;;;;;;;;23.30;57.95;99494.69;2076856;28;19940;-50
2022/05/19 00:32:49;;;;;;;;;;;;;;;23.30;58.11;99493.84;2076187;28;20274;-49
2022/05/19 00:33:49;;;;;;;;;;;;;;;23.31;57.95;99487.38;2076794;28;19994;-49
2022/05/19 00:34:51;;;;;;;;;;;;;;;23.29;58.13;99492.19;2077077;28;20504;-49
2022/05/19 00:35:52;;;;;;;;;;;;;;;23.28;58.20;99485.94;2077750;28;20458;-50
2022/05/19 00:36:57;;;;;;;;;;;;;;;23.27;58.09;99481.59;2077375;28;19936;-48
2022/05/19 00:37:57;;;;;;;;;;;;;;;23.28;58.09;99491.34;2077995;28;19932;-52
2022/05/19 00:38:59;;;;;;;;;;;;;;;23.27;58.24;99489.69;2076774;28;19969;-50
2022/05/19 00:39:59;;;;;;;;;;;;;;;23.28;58.04;99494.06;2077290;28;19926;-53
2022/05/19 00:41:01;;;;;;;;;;;;;;;23.27;58.24;99489.69;2075571;28;20445;-49
2022/05/19 00:43:30;;;;;;;;;;;;;;;23.28;58.34;99490.53;2077549;28;20379;-48
2022/05/19 00:44:31;;;;;;;;;;;;;;;23.27;57.88;99484.28;2077745;28;19961;-50
2022/05/19 00:45:38;;;;;;;;;;;;;;;23.27;58.17;99484.28;2078043;28;19929;-49
2022/05/19 00:46:43;;;;;;;;;;;;;;;23.28;58.24;99485.13;2076907;28;19925;-49
2022/05/19 00:47:46;;;;;;;;;;;;;;;23.27;58.25;99480.75;2077881;28;19929;-51
2022/05/19 00:48:50;;;;;;;;;;;;;;;23.27;58.37;99494.28;2075771;28;19925;-46
2022/05/19 00:49:51;;;;;;;;;;;;;;;23.28;58.13;99487.81;2077556;28;19932;-50
2022/05/19 00:50:56;;;;;;;;;;;;;;;23.28;58.10;99487.81;2076969;28;20163;-47
2022/05/19 00:52:00;;;;;;;;;;;;;;;23.26;58.60;99487.19;2077666;28;19929;-51
2022/05/19 00:53:05;;;;;;;;;;;;;;;23.28;58.23;99490.53;2077073;28;19983;-52
2022/05/19 00:54:08;;;;;;;;;;;;;;;23.27;58.21;99494.28;2077761;28;20462;-47
2022/05/19 00:55:11;;;;;;;;;;;;;;;23.26;58.15;99498.84;2076603;28;20283;-47
2022/05/19 00:56:14;;;;;;;;;;;;;;;23.28;58.00;99495.94;2076892;28;19929;-46
2022/05/19 00:57:18;;;;;;;;;;;;;;;23.26;58.17;99493.44;2077051;28;19929;-47
2022/05/19 00:58:20;;;;;;;;;;;;;;;23.27;58.12;99495.13;2076895;28;19933;-46
2022/05/19 00:59:26;;;;;;;;;;;;;;;23.28;58.07;99495.94;2077517;28;19968;-47
2022/05/19 01:00:27;;;;;;;;;;;;;;;23.28;58.23;99499.47;2076962;28;19940;-47
2022/05/19 01:01:29;;;;;;;;;;;;;;;23.27;57.98;99492.41;2077002;28;19929;-49
2022/05/19 01:02:33;;;;;;;;;;;;;;;23.27;57.95;99488.88;2076474;28;19956;-47
2022/05/19 01:03:37;;;;;;;;;;;;;;;23.28;58.07;99490.53;2076615;28;19964;-46
2022/05/19 01:04:39;;;;;;;;;;;;;;;23.28;57.93;99490.53;2076804;28;20545;-48
2022/05/19 01:05:43;;;;;;;;;;;;;;;23.27;57.81;99495.13;2075757;28;19936;-46
2022/05/19 01:06:45;;;;;;;;;;;;;;;23.26;58.20;99488.03;2077285;28;19925;-47
2022/05/19 01:07:50;;;;;;;;;;;;;;;23.26;57.95;99492.59;2077256;28;20009;-48
2022/05/19 01:08:56;;;;;;;;;;;;;;;23.26;57.94;99492.59;2077104;28;19929;-46
2022/05/19 01:09:57;;;;;;;;;;;;;;;23.26;58.01;99493.44;2077009;28;19925;-49
2022/05/19 01:10:59;;;;;;;;;;;;;;;23.26;57.82;99495.31;2077451;28;20031;-46
2022/05/19 01:12:00;;;;;;;;;;;;;;;23.26;57.93;99496.13;2077061;28;19925;-47
2022/05/19 01:13:01;;;;;;;;;;;;;;;23.25;58.18;99489.06;2076667;28;20021;-47
2022/05/19 01:14:02;;;;;;;;;;;;;;;23.26;57.81;99493.44;2077022;28;19925;-44
2022/05/19 01:15:05;;;;;;;;;;;;;;;23.25;57.97;99489.06;2075667;28;20035;-48
2022/05/19 01:16:07;;;;;;;;;;;;;;;23.25;57.95;99491.78;2076070;28;19980;-46
2022/05/19 01:17:08;;;;;;;;;;;;;;;23.25;57.76;99490.94;2077028;28;19936;-47
2022/05/19 01:18:09;;;;;;;;;;;;;;;23.25;57.67;99486.38;2076359;28;19925;-47
2022/05/19 01:19:16;;;;;;;;;;;;;;;23.26;57.76;99487.19;2075484;28;19939;-47
2022/05/19 01:20:18;;;;;;;;;;;;;;;23.25;57.58;99486.38;2076983;28;19929;-46
2022/05/19 01:21:21;;;;;;;;;;;;;;;23.25;57.75;99491.78;2077144;28;19937;-47
2022/05/19 01:22:26;;;;;;;;;;;;;;;23.26;58.02;99488.03;2077222;28;19932;-46
2022/05/19 01:23:33;;;;;;;;;;;;;;;23.25;57.75;99491.78;2077348;28;20426;-45
2022/05/19 01:24:36;;;;;;;;;;;;;;;23.25;57.56;99491.78;2076492;28;19925;-48
2022/05/19 01:25:41;;;;;;;;;;;;;;;23.24;57.77;99490.13;2076513;28;19925;-48
2022/05/19 01:26:44;;;;;;;;;;;;;;;23.25;57.64;99490.94;2076911;28;19925;-48
2022/05/19 01:27:46;;;;;;;;;;;;;;;23.24;57.81;99487.41;2075488;28;19956;-49
2022/05/19 01:28:47;;;;;;;;;;;;;;;23.25;57.88;99490.94;2076640;28;20364;-49
2022/05/19 01:29:48;;;;;;;;;;;;;;;23.24;57.75;99492.00;2076979;28;19929;-48
2022/05/19 01:30:49;;;;;;;;;;;;;;;23.24;57.83;99494.72;2076575;28;19956;-48
2022/05/19 01:31:53;;;;;;;;;;;;;;;23.24;57.91;99490.13;2076413;28;20315;-49
2022/05/19 01:32:54;;;;;;;;;;;;;;;23.24;57.72;99482.00;2076097;28;20585;-47
2022/05/19 01:33:56;;;;;;;;;;;;;;;23.25;57.81;99483.66;2077106;28;20557;-48
2022/05/19 01:34:57;;;;;;;;;;;;;;;23.23;57.93;99488.44;2076999;28;19929;-47
2022/05/19 01:35:59;;;;;;;;;;;;;;;23.24;57.83;99490.13;2075196;28;19983;-47
2022/05/19 01:36:59;;;;;;;;;;;;;;;23.25;57.62;99486.38;2077232;28;19925;-48
2022/05/19 01:38:02;;;;;;;;;;;;;;;23.25;57.61;99482.84;2077412;28;19980;-48
2022/05/19 01:39:04;;;;;;;;;;;;;;;23.24;57.71;99489.31;2076791;28;20407;-48
2022/05/19 01:40:12;;;;;;;;;;;;;;;23.23;57.57;99491.16;2076767;28;19948;-48
2022/05/19 01:41:16;;;;;;;;;;;;;;;23.23;57.55;99485.75;2076606;28;19932;-49
2022/05/19 01:42:27;;;;;;;;;;;;;;;23.23;57.79;99484.91;2077114;28;19925;-48
2022/05/19 01:43:31;;;;;;;;;;;;;;;23.24;57.68;99494.72;2076722;28;20427;-48
2022/05/19 01:44:38;;;;;;;;;;;;;;;23.24;57.61;99489.31;2076914;28;19933;-46
2022/05/19 01:45:48;;;;;;;;;;;;;;;23.22;57.71;99484.09;2075558;28;20912;-49
2022/05/19 01:46:51;;;;;;;;;;;;;;;23.23;57.58;99493.84;2076174;28;19976;-48
2022/05/19 01:47:57;;;;;;;;;;;;;;;23.22;57.62;99489.50;2075981;28;20023;-50
2022/05/19 01:49:01;;;;;;;;;;;;;;;23.21;57.69;99493.25;2075840;28;20450;-47
2022/05/19 01:50:11;;;;;;;;;;;;;;;23.22;57.55;99492.22;2077159;28;19955;-49
2022/05/19 01:51:15;;;;;;;;;;;;;;;23.24;57.54;99494.72;2076185;28;19932;-47
2022/05/19 01:52:21;;;;;;;;;;;;;;;23.24;57.79;99495.53;2069931;28;19929;-49
2022/05/19 01:53:23;;;;;;;;;;;;;;;23.22;57.52;99494.91;2070678;28;19940;-47
2022/05/19 01:54:28;;;;;;;;;;;;;;;23.24;57.43;99497.44;2073640;28;19929;-49
2022/05/19 01:55:33;;;;;;;;;;;;;;;23.23;57.34;99498.44;2076754;28;20818;-47
2022/05/19 01:56:36;;;;;;;;;;;;;;;23.22;57.66;99492.22;2074176;28;19940;-47
2022/05/19 01:57:44;;;;;;;;;;;;;;;23.22;57.53;99484.09;2076038;28;19929;-47
2022/05/19 01:58:49;;;;;;;;;;;;;;;23.22;57.39;99492.22;2076535;28;19932;-49
2022/05/19 01:59:55;;;;;;;;;;;;;;;23.22;57.45;99494.91;2077075;28;20388;-47
2022/05/19 02:00:58;;;;;;;;;;;;;;;23.22;57.47;99486.78;2075517;28;20555;-49
2022/05/19 02:02:04;;;;;;;;;;;;;;;23.22;57.52;99492.22;2075728;28;19929;-50
2022/05/19 02:03:09;;;;;;;;;;;;;;;23.22;57.43;99489.50;2077133;28;19929;-46
2022/05/19 02:04:17;;;;;;;;;;;;;;;23.20;57.39;99489.69;2076597;28;20591;-48
2022/05/19 02:05:22;;;;;;;;;;;;;;;23.20;57.57;99492.41;2077711;28;19929;-48
2022/05/19 02:06:26;;;;;;;;;;;;;;;23.21;57.75;99493.25;2076862;28;19929;-48
2022/05/19 02:07:29;;;;;;;;;;;;;;;23.20;57.76;99500.53;2076834;28;19925;-46
2022/05/19 02:08:32;;;;;;;;;;;;;;;23.20;57.72;99500.53;2076719;28;19929;-49
2022/05/19 02:09:34;;;;;;;;;;;;;;;23.20;57.73;99499.69;2076216;28;19936;-47
2022/05/19 02:10:38;;;;;;;;;;;;;;;23.19;57.78;99498.88;2075374;28;19991;-49
2022/05/19 02:11:39;;;;;;;;;;;;;;;23.19;58.00;99498.88;2075796;28;19964;-46
2022/05/19 02:12:43;;;;;;;;;;;;;;;23.20;57.85;99499.69;2076516;28;20093;-48
2022/05/19 02:13:44;;;;;;;;;;;;;;;23.19;58.04;99500.75;2077129;28;19932;-47
2022/05/19 02:14:47;;;;;;;;;;;;;;;23.18;57.85;99497.22;2077105;28;19929;-47
2022/05/19 02:15:49;;;;;;;;;;;;;;;23.19;57.91;99501.59;2077653;28;19964;-47
2022/05/19 02:16:51;;;;;;;;;;;;;;;23.18;58.00;99491.00;2077470;28;19980;-47
2022/05/19 02:17:52;;;;;;;;;;;;;;;23.20;57.86;99494.28;2077055;28;19932;-47
2022/05/19 02:18:54;;;;;;;;;;;;;;;23.17;57.93;99495.53;2077035;28;19933;-47
2022/05/19 02:19:57;;;;;;;;;;;;;;;23.18;57.70;99489.09;2077969;28;19933;-49
2022/05/19 02:20:59;;;;;;;;;;;;;;;23.17;58.03;99494.72;2075688;28;19925;-49
2022/05/19 02:22:01;;;;;;;;;;;;;;;23.18;57.98;99496.41;2077395;28;19929;-49
2022/05/19 02:23:03;;;;;;;;;;;;;;;23.16;58.01;99487.66;2076660;28;20390;-47
2022/05/19 02:24:04;;;;;;;;;;;;;;;23.18;57.85;99496.41;2077591;28;19925;-49
2022/05/19 02:25:10;;;;;;;;;;;;;;;23.17;58.06;99492.00;2078772;28;19925;-46
2022/05/19 02:26:10;;;;;;;;;;;;;;;23.17;58.06;99492.00;2078840;28;19929;-48
2022/05/19 02:27:24;;;;;;;;;;;;;;;23.15;58.27;99494.94;2078638;28;19928;-52
2022/05/19 02:28:29;;;;;;;;;;;;;;;23.15;58.06;99488.69;2078642;28;19929;-50
2022/05/19 02:29:30;;;;;;;;;;;;;;;23.16;57.96;99491.19;2075149;28;19925;-47
2022/05/19 02:30:33;;;;;;;;;;;;;;;23.17;57.98;99494.72;2076767;28;19955;-48
2022/05/19 02:31:35;;;;;;;;;;;;;;;23.17;58.03;99500.13;2076349;28;20662;-47
2022/05/19 02:32:36;;;;;;;;;;;;;;;23.16;57.92;99496.59;2074927;28;19968;-46
2022/05/19 02:33:37;;;;;;;;;;;;;;;23.16;57.96;99496.59;2076093;28;19940;-47
2022/05/19 02:34:38;;;;;;;;;;;;;;;23.16;57.96;99496.59;2076612;28;19925;-49
2022/05/19 02:35:39;;;;;;;;;;;;;;;23.17;57.82;99492.00;2076495;28;20040;-47
2022/05/19 02:36:40;;;;;;;;;;;;;;;23.17;57.89;99500.13;2076791;28;19929;-48
2022/05/19 02:37:42;;;;;;;;;;;;;;;23.16;57.81;99493.06;2075481;28;20625;-47
2022/05/19 02:38:43;;;;;;;;;;;;;;;23.17;57.93;99500.13;2076065;28;20426;-47
2022/05/19 02:39:45;;;;;;;;;;;;;;;23.16;57.89;99493.91;2074727;28;20016;-51
2022/05/19 02:40:46;;;;;;;;;;;;;;;23.17;57.71;99486.59;2076624;28;19937;-47
2022/05/19 02:41:47;;;;;;;;;;;;;;;23.16;57.75;99490.38;2076038;28;19933;-49
2022/05/19 02:42:48;;;;;;;;;;;;;;;23.16;57.87;99495.78;2076692;28;19925;-46
2022/05/19 02:43:51;;;;;;;;;;;;;;;23.16;57.97;99498.47;2076078;28;19929;-47
2022/05/19 02:44:51;;;;;;;;;;;;;;;23.17;57.81;99494.72;2076881;28;20295;-46
2022/05/19 02:45:53;;;;;;;;;;;;;;;23.17;57.77;99489.31;2076456;28;19933;-48
2022/05/19 02:46:54;;;;;;;;;;;;;;;23.17;57.77;99497.44;2076903;28;19926;-48
2022/05/19 02:47:55;;;;;;;;;;;;;;;23.16;57.53;99487.66;2074503;28;19933;-48
2022/05/19 02:48:58;;;;;;;;;;;;;;;23.15;57.85;99492.25;2076637;28;19940;-48
2022/05/19 02:49:59;;;;;;;;;;;;;;;23.15;57.66;99497.66;2076436;28;19932;-46
2022/05/19 02:51:01;;;;;;;;;;;;;;;23.15;57.53;99485.97;2076349;28;19925;-48
2022/05/19 02:52:01;;;;;;;;;;;;;;;23.15;57.59;99488.69;2076816;28;20833;-47
2022/05/19 02:53:03;;;;;;;;;;;;;;;23.15;57.67;99486.84;2076593;28;19929;-47
2022/05/19 02:54:03;;;;;;;;;;;;;;;23.15;57.68;99492.25;2076505;28;20015;-48
2022/05/19 02:55:06;;;;;;;;;;;;;;;23.15;57.79;99496.78;2076581;28;20790;-49
2022/05/19 02:56:06;;;;;;;;;;;;;;;23.16;57.76;99495.78;2074483;28;19926;-46
2022/05/19 02:57:08;;;;;;;;;;;;;;;23.14;57.90;99490.56;2076317;28;20942;-48
2022/05/19 02:58:09;;;;;;;;;;;;;;;23.13;57.60;99493.50;2076361;28;20453;-47
2022/05/19 02:59:12;;;;;;;;;;;;;;;23.13;57.85;99493.50;2076884;28;19933;-49
2022/05/19 03:00:14;;;;;;;;;;;;;;;23.13;57.63;99498.91;2076945;28;19925;-47
2022/05/19 03:01:16;;;;;;;;;;;;;;;23.14;57.75;99501.38;2077110;28;19936;-45
2022/05/19 03:02:16;;;;;;;;;;;;;;;23.14;57.53;99495.97;2076373;28;19925;-46
2022/05/19 03:03:18;;;;;;;;;;;;;;;23.14;57.68;99505.97;2076714;28;19929;-48
2022/05/19 03:04:19;;;;;;;;;;;;;;;23.15;57.74;99502.22;2075375;28;19941;-47
2022/05/19 03:05:21;;;;;;;;;;;;;;;23.13;57.80;99493.50;2077580;28;20012;-45
2022/05/19 03:06:22;;;;;;;;;;;;;;;23.13;57.73;99499.72;2076935;28;19995;-47
2022/05/19 03:07:24;;;;;;;;;;;;;;;23.14;57.68;99505.97;2075865;28;19925;-46
2022/05/19 03:08:25;;;;;;;;;;;;;;;23.13;57.73;99507.84;2076356;28;19929;-47
2022/05/19 03:09:26;;;;;;;;;;;;;;;23.14;57.80;99517.63;2074682;28;19988;-47
2022/05/19 03:10:27;;;;;;;;;;;;;;;23.13;57.43;99513.25;2076487;28;19925;-46
2022/05/19 03:11:28;;;;;;;;;;;;;;;23.12;57.44;99503.50;2077180;28;20017;-46
2022/05/19 03:12:29;;;;;;;;;;;;;;;23.12;57.69;99510.75;2075999;28;20056;-47
2022/05/19 03:13:30;;;;;;;;;;;;;;;23.11;57.54;99507.22;2077202;28;19937;-46
2022/05/19 03:14:32;;;;;;;;;;;;;;;23.13;57.69;99510.56;2076812;28;19972;-47
2022/05/19 03:15:34;;;;;;;;;;;;;;;23.13;57.67;99517.84;2077427;28;20027;-46
2022/05/19 03:16:36;;;;;;;;;;;;;;;23.13;57.71;99512.44;2076021;28;19925;-46
2022/05/19 03:17:38;;;;;;;;;;;;;;;23.12;57.74;99510.75;2076346;28;19952;-47
2022/05/19 03:18:39;;;;;;;;;;;;;;;23.13;57.53;99517.84;2074979;28;19932;-46
2022/05/19 03:19:40;;;;;;;;;;;;;;;23.11;57.60;99515.34;2076974;28;19929;-46
2022/05/19 03:20:41;;;;;;;;;;;;;;;23.11;57.54;99522.63;2076416;28;20016;-48
2022/05/19 03:21:42;;;;;;;;;;;;;;;23.12;57.75;99510.75;2077097;28;19979;-47
2022/05/19 03:22:44;;;;;;;;;;;;;;;23.12;57.55;99508.03;2076563;28;19936;-44
2022/05/19 03:23:44;;;;;;;;;;;;;;;23.11;57.79;99509.94;2076456;28;20024;-48
2022/05/19 03:24:46;;;;;;;;;;;;;;;23.12;57.52;99511.63;2077068;28;19926;-47
2022/05/19 03:25:46;;;;;;;;;;;;;;;23.10;57.47;99516.41;2077187;28;19929;-47
2022/05/19 03:26:48;;;;;;;;;;;;;;;23.12;57.51;99518.88;2077285;28;20368;-46
2022/05/19 03:27:49;;;;;;;;;;;;;;;23.12;57.67;99518.88;2076332;28;19940;-45
2022/05/19 03:28:50;;;;;;;;;;;;;;;23.12;57.50;99510.75;2074561;28;19929;-44
2022/05/19 03:29:53;;;;;;;;;;;;;;;23.11;57.46;99518.03;2075671;28;19929;-46
2022/05/19 03:30:54;;;;;;;;;;;;;;;23.12;57.59;99516.16;2076677;28;19973;-46
2022/05/19 03:31:55;;;;;;;;;;;;;;;23.11;57.65;99511.81;2076451;28;19976;-45
2022/05/19 03:32:56;;;;;;;;;;;;;;;23.09;57.75;99509.31;2076707;28;19929;-47
2022/05/19 03:33:57;;;;;;;;;;;;;;;23.09;57.49;99511.19;2076808;28;19925;-47
2022/05/19 03:34:58;;;;;;;;;;;;;;;23.09;57.58;99512.00;2077127;28;20414;-45
2022/05/19 03:36:01;;;;;;;;;;;;;;;23.10;57.75;99508.28;2076785;28;19929;-45
2022/05/19 03:37:04;;;;;;;;;;;;;;;23.10;57.68;99507.44;2075359;28;19925;-45
2022/05/19 03:38:05;;;;;;;;;;;;;;;23.09;57.55;99505.78;2076353;28;19932;-48
2022/05/19 03:39:06;;;;;;;;;;;;;;;23.09;57.92;99505.78;2076127;28;19943;-48
2022/05/19 03:40:08;;;;;;;;;;;;;;;23.09;57.79;99505.78;2078001;28;19929;-47
2022/05/19 03:41:09;;;;;;;;;;;;;;;23.08;57.70;99501.41;2078536;28;19936;-46
2022/05/19 03:42:10;;;;;;;;;;;;;;;23.07;58.16;99505.16;2077910;28;19933;-45
2022/05/19 03:43:12;;;;;;;;;;;;;;;23.07;57.80;99505.16;2078573;28;19931;-47
2022/05/19 03:44:12;;;;;;;;;;;;;;;23.08;57.99;99506.81;2076642;28;19941;-44
2022/05/19 03:45:15;;;;;;;;;;;;;;;23.07;57.95;99508.72;2078221;28;19925;-48
2022/05/19 03:46:16;;;;;;;;;;;;;;;23.07;57.97;99506.00;2077382;28;19932;-45
2022/05/19 03:47:18;;;;;;;;;;;;;;;23.08;58.10;99501.41;2078812;28;20385;-46
2022/05/19 03:48:18;;;;;;;;;;;;;;;23.07;57.88;99505.16;2077375;28;19933;-44
2022/05/19 03:49:20;;;;;;;;;;;;;;;23.07;58.03;99500.59;2078242;28;19925;-46
2022/05/19 03:50:20;;;;;;;;;;;;;;;23.08;57.87;99514.94;2078455;28;19960;-44
2022/05/19 03:51:23;;;;;;;;;;;;;;;23.07;57.95;99510.59;2078794;28;19964;-46
2022/05/19 03:52:24;;;;;;;;;;;;;;;23.06;57.96;99511.59;2077980;28;19968;-48
2022/05/19 03:53:25;;;;;;;;;;;;;;;23.07;57.91;99513.28;2077084;28;19929;-44
2022/05/19 03:54:26;;;;;;;;;;;;;;;23.07;57.66;99507.88;2077579;28;20437;-46
2022/05/19 03:55:27;;;;;;;;;;;;;;;23.07;57.95;99510.59;2078723;28;19925;-45
2022/05/19 03:56:28;;;;;;;;;;;;;;;23.06;57.97;99504.31;2078024;28;19936;-46
2022/05/19 03:57:30;;;;;;;;;;;;;;;23.05;58.18;99510.78;2077634;28;19925;-45
2022/05/19 03:58:30;;;;;;;;;;;;;;;23.08;57.89;99517.66;2077614;28;19929;-47
2022/05/19 03:59:32;;;;;;;;;;;;;;;23.06;58.14;99506.19;2078499;28;19959;-46
2022/05/19 04:00:34;;;;;;;;;;;;;;;23.04;58.05;99506.44;2078541;28;20487;-46
2022/05/19 04:01:35;;;;;;;;;;;;;;;23.04;58.18;99510.97;2077136;28;19971;-54
2022/05/19 04:02:36;;;;;;;;;;;;;;;23.05;57.92;99510.78;2077604;28;19937;-46
2022/05/19 04:03:37;;;;;;;;;;;;;;;23.05;58.03;99512.66;2077199;28;20614;-46
2022/05/19 04:04:38;;;;;;;;;;;;;;;23.06;57.92;99514.31;2078091;28;19936;-47
2022/05/19 04:05:39;;;;;;;;;;;;;;;23.05;58.07;99510.78;2076788;28;19924;-46
2022/05/19 04:06:40;;;;;;;;;;;;;;;23.04;58.05;99511.84;2078222;28;19983;-47
2022/05/19 04:07:42;;;;;;;;;;;;;;;23.05;57.87;99509.97;2078134;28;19936;-48
2022/05/19 04:08:42;;;;;;;;;;;;;;;23.06;57.99;99522.44;2077293;28;20390;-46
2022/05/19 04:09:44;;;;;;;;;;;;;;;23.06;57.82;99522.44;2078227;28;19929;-45
2022/05/19 04:10:47;;;;;;;;;;;;;;;23.04;57.93;99521.81;2077995;28;20503;-46
2022/05/19 04:11:49;;;;;;;;;;;;;;;23.06;58.05;99525.13;2078159;28;19976;-44
2022/05/19 04:12:49;;;;;;;;;;;;;;;23.04;57.85;99521.81;2077821;28;19929;-48
2022/05/19 04:13:51;;;;;;;;;;;;;;;23.03;57.93;99520.16;2078699;28;20363;-46
2022/05/19 04:14:52;;;;;;;;;;;;;;;23.03;58.31;99520.97;2077358;28;19932;-47
2022/05/19 04:15:54;;;;;;;;;;;;;;;23.03;57.88;99520.97;2076461;28;21022;-49
2022/05/19 04:16:55;;;;;;;;;;;;;;;23.03;57.82;99523.69;2078191;28;19971;-48
2022/05/19 04:17:56;;;;;;;;;;;;;;;23.05;57.65;99528.91;2077709;28;20351;-47
2022/05/19 04:18:57;;;;;;;;;;;;;;;23.03;57.80;99530.97;2077237;28;20538;-46
2022/05/19 04:19:59;;;;;;;;;;;;;;;23.04;57.79;99532.63;2078401;28;19926;-48
2022/05/19 04:20:59;;;;;;;;;;;;;;;23.02;58.09;99521.22;2077663;28;20610;-47
2022/05/19 04:22:01;;;;;;;;;;;;;;;23.03;58.03;99533.69;2078161;28;19925;-49
2022/05/19 04:23:03;;;;;;;;;;;;;;;23.02;57.79;99532.03;2077888;28;19925;-46
2022/05/19 04:24:06;;;;;;;;;;;;;;;23.02;57.71;99529.31;2078094;28;20451;-49
2022/05/19 04:25:09;;;;;;;;;;;;;;;23.02;57.72;99530.16;2076301;28;19925;-48
2022/05/19 04:26:09;;;;;;;;;;;;;;;23.02;57.71;99532.84;2077630;28;19936;-45
2022/05/19 04:27:12;;;;;;;;;;;;;;;23.02;57.62;99534.72;2076934;28;19940;-47
2022/05/19 04:28:13;;;;;;;;;;;;;;;23.02;57.80;99530.16;2077324;28;19940;-46
2022/05/19 04:29:14;;;;;;;;;;;;;;;23.03;57.86;99537.22;2077467;28;20306;-45
2022/05/19 04:30:15;;;;;;;;;;;;;;;23.03;57.76;99541.78;2077556;28;19968;-46
2022/05/19 04:31:18;;;;;;;;;;;;;;;23.03;57.60;99539.09;2077415;28;19925;-51
2022/05/19 04:32:18;;;;;;;;;;;;;;;23.04;57.58;99543.44;2077397;28;19972;-46
2022/05/19 04:33:20;;;;;;;;;;;;;;;23.03;57.85;99541.78;2076307;28;19926;-44
2022/05/19 04:34:21;;;;;;;;;;;;;;;23.03;57.70;99539.91;2077761;28;20410;-47
2022/05/19 04:35:22;;;;;;;;;;;;;;;23.03;57.60;99547.22;2078187;28;19929;-45
2022/05/19 04:36:23;;;;;;;;;;;;;;;23.04;57.69;99546.16;2077847;28;19936;-46
2022/05/19 04:37:24;;;;;;;;;;;;;;;23.04;57.43;99551.56;2077660;28;20686;-46
2022/05/19 04:38:26;;;;;;;;;;;;;;;23.03;58.00;99547.22;2077420;28;19929;-45
2022/05/19 04:39:26;;;;;;;;;;;;;;;23.02;57.49;99548.25;2077746;28;19957;-47
2022/05/19 04:40:28;;;;;;;;;;;;;;;23.01;57.55;99550.09;2077835;28;19940;-47
2022/05/19 04:41:29;;;;;;;;;;;;;;;23.02;57.61;99550.97;2077846;28;19925;-44
2022/05/19 04:42:30;;;;;;;;;;;;;;;23.01;57.89;99552.81;2075973;28;19929;-47
2022/05/19 04:43:31;;;;;;;;;;;;;;;23.01;57.70;99552.81;2078278;28;19946;-47
2022/05/19 04:44:32;;;;;;;;;;;;;;;22.99;57.97;99554.09;2077367;28;20118;-48
2022/05/19 04:45:33;;;;;;;;;;;;;;;23.00;57.55;99558.44;2077798;28;19929;-47
2022/05/19 04:46:36;;;;;;;;;;;;;;;22.98;57.84;99553.25;2077920;28;19985;-47
2022/05/19 04:47:36;;;;;;;;;;;;;;;23.02;57.47;99556.38;2077507;28;19925;-45
2022/05/19 04:48:38;;;;;;;;;;;;;;;23.01;57.68;99560.09;2077259;28;19931;-45
2022/05/19 04:49:38;;;;;;;;;;;;;;;23.01;57.49;99557.41;2078507;28;19975;-46
2022/05/19 04:50:40;;;;;;;;;;;;;;;23.02;57.63;99567.19;2075228;28;20507;-46
2022/05/19 04:51:40;;;;;;;;;;;;;;;23.00;57.65;99564.69;2077972;28;19940;-48
2022/05/19 04:52:42;;;;;;;;;;;;;;;22.99;57.64;99556.81;2077210;28;19984;-47
2022/05/19 04:53:43;;;;;;;;;;;;;;;23.00;57.53;99559.28;2077506;28;19929;-45
2022/05/19 04:54:45;;;;;;;;;;;;;;;22.98;57.74;99566.75;2077656;28;20678;-45
2022/05/19 04:55:46;;;;;;;;;;;;;;;22.97;57.71;99574.06;2077303;28;19975;-47
2022/05/19 04:56:47;;;;;;;;;;;;;;;22.98;57.66;99572.19;2077343;28;19929;-47
2022/05/19 04:57:48;;;;;;;;;;;;;;;23.00;57.43;99577.38;2077840;28;19932;-44
2022/05/19 04:58:49;;;;;;;;;;;;;;;22.97;57.96;99574.06;2076972;28;19976;-46
2022/05/19 04:59:50;;;;;;;;;;;;;;;22.98;57.68;99572.19;2078231;28;19929;-48
2022/05/19 05:00:52;;;;;;;;;;;;;;;22.96;57.49;99575.09;2075103;28;19929;-46
2022/05/19 05:01:54;;;;;;;;;;;;;;;22.97;58.01;99575.94;2078135;28;19933;-47
2022/05/19 05:02:56;;;;;;;;;;;;;;;22.97;57.82;99582.16;2077739;28;19936;-48
2022/05/19 05:03:57;;;;;;;;;;;;;;;22.98;57.66;99580.28;2077430;28;19929;-46
2022/05/19 05:04:58;;;;;;;;;;;;;;;22.96;57.99;99577.81;2074827;28;19925;-46
2022/05/19 05:05:59;;;;;;;;;;;;;;;22.96;57.81;99577.00;2077596;28;19925;-47
2022/05/19 05:07:00;;;;;;;;;;;;;;;22.96;57.73;99583.22;2076988;28;20426;-45
2022/05/19 05:08:01;;;;;;;;;;;;;;;22.96;57.73;99590.50;2077734;28;19925;-45
2022/05/19 05:09:03;;;;;;;;;;;;;;;22.96;58.26;99585.94;2077223;28;19925;-47
2022/05/19 05:10:05;;;;;;;;;;;;;;;22.96;57.79;99593.22;2077633;28;19929;-48
2022/05/19 05:11:06;;;;;;;;;;;;;;;22.96;57.87;99587.81;2076983;28;19925;-47
2022/05/19 05:12:07;;;;;;;;;;;;;;;22.96;57.82;99591.34;2077873;28;19925;-46
2022/05/19 05:13:10;;;;;;;;;;;;;;;22.94;58.38;99587.97;2076817;28;19936;-45
2022/05/19 05:14:11;;;;;;;;;;;;;;;22.95;58.14;99595.06;2077603;28;20527;-45
2022/05/19 05:15:12;;;;;;;;;;;;;;;22.94;58.12;99596.09;2066976;28;19925;-46
2022/05/19 05:16:13;;;;;;;;;;;;;;;22.94;58.60;99593.38;2075545;28;19936;-46
2022/05/19 05:17:16;;;;;;;;;;;;;;;22.94;57.81;99600.66;2077566;28;20422;-46
2022/05/19 05:18:16;;;;;;;;;;;;;;;22.92;58.17;99595.47;2077165;28;19968;-46
2022/05/19 05:19:21;;;;;;;;;;;;;;;22.93;58.20;99602.56;2077150;28;19933;-46
2022/05/19 05:20:21;;;;;;;;;;;;;;;22.93;58.23;99599.84;2077777;28;19929;-47
2022/05/19 05:21:23;;;;;;;;;;;;;;;22.92;58.50;99605.44;2074652;28;20490;-47
2022/05/19 05:22:23;;;;;;;;;;;;;;;22.91;58.08;99592.97;2077558;28;19929;-47
2022/05/19 05:23:25;;;;;;;;;;;;;;;22.93;58.42;99597.13;2077433;28;19929;-49
2022/05/19 05:24:26;;;;;;;;;;;;;;;22.92;58.16;99600.88;2076016;28;19925;-51
2022/05/19 05:25:29;;;;;;;;;;;;;;;22.92;57.96;99598.16;2077249;28;21719;-48